sensor_id;sensor_type;location;lat;lon;timestamp;temperature;humidity
6758;DHT22;3416;53.074;8.822;2024-03-02T00:01:36;8.90;99.90
6758;DHT22;3416;53.074;8.822;2024-03-02T00:04:04;8.80;99.90
6758;DHT22;3416;53.074;8.822;2024-03-02T00:06:33;8.90;99.90
6758;DHT22;3416;53.074;8.822;2024-03-02T00:09:00;8.80;99.90
6758;DHT22;3416;53.074;8.822;2024-03-02T00:11:28;8.80;99.90
6758;DHT22;3416;53.074;8.822;2024-03-02T00:13:55;8.70;99.90
6758;DHT22;3416;53.074;8.822;2024-03-02T00:16:22;8.70;99.90
6758;DHT22;3416;53.074;8.822;2024-03-02T00:18:51;8.60;99.90
6758;DHT22;3416;53.074;8.822;2024-03-02T00:21:18;8.50;99.90
6758;DHT22;3416;53.074;8.822;2024-03-02T00:23:48;8.50;99.90
6758;DHT22;3416;53.074;8.822;2024-03-02T00:26:17;8.50;99.90
6758;DHT22;3416;53.074;8.822;2024-03-02T00:28:44;8.50;99.90
6758;DHT22;3416;53.074;8.822;2024-03-02T00:31:19;8.50;99.90
6758;DHT22;3416;53.074;8.822;2024-03-02T00:33:48;8.40;99.90
6758;DHT22;3416;53.074;8.822;2024-03-02T00:36:21;8.40;99.90
6758;DHT22;3416;53.074;8.822;2024-03-02T00:38:49;8.50;99.90
6758;DHT22;3416;53.074;8.822;2024-03-02T00:41:20;8.40;99.90
6758;DHT22;3416;53.074;8.822;2024-03-02T00:43:57;8.40;99.90
6758;DHT22;3416;53.074;8.822;2024-03-02T00:46:25;8.40;99.90
6758;DHT22;3416;53.074;8.822;2024-03-02T00:48:54;8.50;99.90
6758;DHT22;3416;53.074;8.822;2024-03-02T00:51:24;8.50;99.90
6758;DHT22;3416;53.074;8.822;2024-03-02T00:53:52;8.50;99.90
6758;DHT22;3416;53.074;8.822;2024-03-02T00:56:21;8.40;99.90
6758;DHT22;3416;53.074;8.822;2024-03-02T00:58:49;8.40;99.90
6758;DHT22;3416;53.074;8.822;2024-03-02T01:01:16;8.40;99.90
6758;DHT22;3416;53.074;8.822;2024-03-02T01:03:43;8.40;99.90
6758;DHT22;3416;53.074;8.822;2024-03-02T01:06:10;8.40;99.90
6758;DHT22;3416;53.074;8.822;2024-03-02T01:08:39;8.40;99.90
6758;DHT22;3416;53.074;8.822;2024-03-02T01:11:06;8.30;99.90
6758;DHT22;3416;53.074;8.822;2024-03-02T01:13:33;8.30;99.90
6758;DHT22;3416;53.074;8.822;2024-03-02T01:16:00;8.30;99.90
6758;DHT22;3416;53.074;8.822;2024-03-02T01:18:28;8.30;99.90
6758;DHT22;3416;53.074;8.822;2024-03-02T01:20:56;8.30;99.90
6758;DHT22;3416;53.074;8.822;2024-03-02T01:23:23;8.40;99.90
6758;DHT22;3416;53.074;8.822;2024-03-02T01:25:52;8.30;99.90
6758;DHT22;3416;53.074;8.822;2024-03-02T01:28:19;8.30;99.90
6758;DHT22;3416;53.074;8.822;2024-03-02T01:30:47;8.30;99.90
6758;DHT22;3416;53.074;8.822;2024-03-02T01:33:14;8.30;99.90
6758;DHT22;3416;53.074;8.822;2024-03-02T01:35:41;8.30;99.90
6758;DHT22;3416;53.074;8.822;2024-03-02T01:38:08;8.30;99.90
6758;DHT22;3416;53.074;8.822;2024-03-02T01:40:37;8.30;99.90
6758;DHT22;3416;53.074;8.822;2024-03-02T01:43:05;8.30;99.90
6758;DHT22;3416;53.074;8.822;2024-03-02T01:45:33;8.20;99.90
6758;DHT22;3416;53.074;8.822;2024-03-02T01:48:01;8.20;99.90
6758;DHT22;3416;53.074;8.822;2024-03-02T01:50:34;8.30;99.90
6758;DHT22;3416;53.074;8.822;2024-03-02T01:53:01;8.20;99.90
6758;DHT22;3416;53.074;8.822;2024-03-02T01:55:29;8.20;99.90
6758;DHT22;3416;53.074;8.822;2024-03-02T01:57:56;8.20;99.90
6758;DHT22;3416;53.074;8.822;2024-03-02T02:00:25;8.20;99.90
6758;DHT22;3416;53.074;8.822;2024-03-02T02:02:52;8.30;99.90
6758;DHT22;3416;53.074;8.822;2024-03-02T02:05:20;8.30;99.90
6758;DHT22;3416;53.074;8.822;2024-03-02T02:07:47;8.30;99.90
6758;DHT22;3416;53.074;8.822;2024-03-02T02:10:14;8.30;99.90
6758;DHT22;3416;53.074;8.822;2024-03-02T02:12:41;8.40;99.90
6758;DHT22;3416;53.074;8.822;2024-03-02T02:15:37;8.30;99.90
6758;DHT22;3416;53.074;8.822;2024-03-02T02:18:05;8.30;99.90
6758;DHT22;3416;53.074;8.822;2024-03-02T02:20:32;8.30;99.90
6758;DHT22;3416;53.074;8.822;2024-03-02T02:23:01;8.20;99.90
6758;DHT22;3416;53.074;8.822;2024-03-02T02:25:29;8.20;99.90
6758;DHT22;3416;53.074;8.822;2024-03-02T02:27:57;8.20;99.90
6758;DHT22;3416;53.074;8.822;2024-03-02T02:30:26;8.10;99.90
6758;DHT22;3416;53.074;8.822;2024-03-02T02:32:54;8.10;99.90
6758;DHT22;3416;53.074;8.822;2024-03-02T02:35:21;8.10;99.90
6758;DHT22;3416;53.074;8.822;2024-03-02T02:37:49;8.00;99.90
6758;DHT22;3416;53.074;8.822;2024-03-02T02:40:19;8.00;99.90
6758;DHT22;3416;53.074;8.822;2024-03-02T02:42:46;8.00;99.90
6758;DHT22;3416;53.074;8.822;2024-03-02T02:45:13;7.90;99.90
6758;DHT22;3416;53.074;8.822;2024-03-02T02:47:40;7.90;99.90
6758;DHT22;3416;53.074;8.822;2024-03-02T02:50:08;7.90;99.90
6758;DHT22;3416;53.074;8.822;2024-03-02T02:52:37;7.90;99.90
6758;DHT22;3416;53.074;8.822;2024-03-02T02:55:07;7.90;99.90
6758;DHT22;3416;53.074;8.822;2024-03-02T02:57:37;7.90;99.90
6758;DHT22;3416;53.074;8.822;2024-03-02T03:00:06;7.90;99.90
6758;DHT22;3416;53.074;8.822;2024-03-02T03:02:37;7.80;99.90
6758;DHT22;3416;53.074;8.822;2024-03-02T03:05:05;7.80;99.90
6758;DHT22;3416;53.074;8.822;2024-03-02T03:07:32;7.70;99.90
6758;DHT22;3416;53.074;8.822;2024-03-02T03:10:00;7.70;99.90
6758;DHT22;3416;53.074;8.822;2024-03-02T03:12:27;7.70;99.90
6758;DHT22;3416;53.074;8.822;2024-03-02T03:14:56;7.70;99.90
6758;DHT22;3416;53.074;8.822;2024-03-02T03:17:23;7.70;99.90
6758;DHT22;3416;53.074;8.822;2024-03-02T03:19:50;7.70;99.90
6758;DHT22;3416;53.074;8.822;2024-03-02T03:22:17;7.60;99.90
6758;DHT22;3416;53.074;8.822;2024-03-02T03:24:44;7.60;99.90
6758;DHT22;3416;53.074;8.822;2024-03-02T03:27:12;7.60;99.90
6758;DHT22;3416;53.074;8.822;2024-03-02T03:29:39;7.60;99.90
6758;DHT22;3416;53.074;8.822;2024-03-02T03:32:08;7.60;99.90
6758;DHT22;3416;53.074;8.822;2024-03-02T03:34:35;7.60;99.90
6758;DHT22;3416;53.074;8.822;2024-03-02T03:37:03;7.60;99.90
6758;DHT22;3416;53.074;8.822;2024-03-02T03:39:30;7.60;99.90
6758;DHT22;3416;53.074;8.822;2024-03-02T03:41:57;7.60;99.90
6758;DHT22;3416;53.074;8.822;2024-03-02T03:44:24;7.60;99.90
6758;DHT22;3416;53.074;8.822;2024-03-02T03:46:51;7.60;99.90
6758;DHT22;3416;53.074;8.822;2024-03-02T03:49:19;7.60;99.90
6758;DHT22;3416;53.074;8.822;2024-03-02T03:51:46;7.60;99.90
6758;DHT22;3416;53.074;8.822;2024-03-02T03:54:13;7.50;99.90
6758;DHT22;3416;53.074;8.822;2024-03-02T03:56:40;7.50;99.90
6758;DHT22;3416;53.074;8.822;2024-03-02T03:59:18;7.50;99.90
6758;DHT22;3416;53.074;8.822;2024-03-02T04:01:45;7.50;99.90
6758;DHT22;3416;53.074;8.822;2024-03-02T04:04:12;7.50;99.90
6758;DHT22;3416;53.074;8.822;2024-03-02T04:06:47;7.50;99.90
6758;DHT22;3416;53.074;8.822;2024-03-02T04:09:14;7.50;99.90
6758;DHT22;3416;53.074;8.822;2024-03-02T04:11:41;7.50;99.90
6758;DHT22;3416;53.074;8.822;2024-03-02T04:14:08;7.50;99.90
6758;DHT22;3416;53.074;8.822;2024-03-02T04:16:35;7.50;99.90
6758;DHT22;3416;53.074;8.822;2024-03-02T04:19:02;7.60;99.90
6758;DHT22;3416;53.074;8.822;2024-03-02T04:21:34;7.60;99.90
6758;DHT22;3416;53.074;8.822;2024-03-02T04:24:03;7.60;99.90
6758;DHT22;3416;53.074;8.822;2024-03-02T04:26:30;7.60;99.90
6758;DHT22;3416;53.074;8.822;2024-03-02T04:28:57;7.60;99.90
6758;DHT22;3416;53.074;8.822;2024-03-02T04:31:24;7.50;99.90
6758;DHT22;3416;53.074;8.822;2024-03-02T04:33:51;7.60;99.90
6758;DHT22;3416;53.074;8.822;2024-03-02T04:36:22;7.50;99.90
6758;DHT22;3416;53.074;8.822;2024-03-02T04:38:49;7.50;99.90
6758;DHT22;3416;53.074;8.822;2024-03-02T04:41:18;7.50;99.90
6758;DHT22;3416;53.074;8.822;2024-03-02T04:43:45;7.60;99.90
6758;DHT22;3416;53.074;8.822;2024-03-02T04:46:12;7.60;99.90
6758;DHT22;3416;53.074;8.822;2024-03-02T04:48:39;7.50;99.90
6758;DHT22;3416;53.074;8.822;2024-03-02T04:51:06;7.50;99.90
6758;DHT22;3416;53.074;8.822;2024-03-02T04:53:33;7.40;99.90
6758;DHT22;3416;53.074;8.822;2024-03-02T04:56:00;7.50;99.90
6758;DHT22;3416;53.074;8.822;2024-03-02T04:58:45;7.50;99.90
6758;DHT22;3416;53.074;8.822;2024-03-02T05:01:12;7.40;99.90
6758;DHT22;3416;53.074;8.822;2024-03-02T05:03:39;7.40;99.90
6758;DHT22;3416;53.074;8.822;2024-03-02T05:06:07;7.50;99.90
6758;DHT22;3416;53.074;8.822;2024-03-02T05:08:35;7.50;99.90
6758;DHT22;3416;53.074;8.822;2024-03-02T05:11:02;7.50;99.90
6758;DHT22;3416;53.074;8.822;2024-03-02T05:13:42;7.50;99.90
6758;DHT22;3416;53.074;8.822;2024-03-02T05:16:11;7.50;99.90
6758;DHT22;3416;53.074;8.822;2024-03-02T05:18:38;7.40;99.90
6758;DHT22;3416;53.074;8.822;2024-03-02T05:21:05;7.50;99.90
6758;DHT22;3416;53.074;8.822;2024-03-02T05:23:32;7.50;99.90
6758;DHT22;3416;53.074;8.822;2024-03-02T05:26:00;7.40;99.90
6758;DHT22;3416;53.074;8.822;2024-03-02T05:28:27;7.40;99.90
6758;DHT22;3416;53.074;8.822;2024-03-02T05:30:54;7.50;99.90
6758;DHT22;3416;53.074;8.822;2024-03-02T05:33:23;7.50;99.90
6758;DHT22;3416;53.074;8.822;2024-03-02T05:35:50;7.50;99.90
6758;DHT22;3416;53.074;8.822;2024-03-02T05:38:17;7.50;99.90
6758;DHT22;3416;53.074;8.822;2024-03-02T05:40:44;7.40;99.90
6758;DHT22;3416;53.074;8.822;2024-03-02T05:43:11;7.40;99.90
6758;DHT22;3416;53.074;8.822;2024-03-02T05:45:37;7.50;99.90
6758;DHT22;3416;53.074;8.822;2024-03-02T05:48:06;7.50;99.90
6758;DHT22;3416;53.074;8.822;2024-03-02T05:50:34;7.40;99.90
6758;DHT22;3416;53.074;8.822;2024-03-02T05:53:01;7.40;99.90
6758;DHT22;3416;53.074;8.822;2024-03-02T05:55:28;7.40;99.90
6758;DHT22;3416;53.074;8.822;2024-03-02T05:57:55;7.40;99.90
6758;DHT22;3416;53.074;8.822;2024-03-02T06:00:37;7.40;99.90
6758;DHT22;3416;53.074;8.822;2024-03-02T06:03:04;7.40;99.90
6758;DHT22;3416;53.074;8.822;2024-03-02T06:05:31;7.40;99.90
6758;DHT22;3416;53.074;8.822;2024-03-02T06:08:00;7.40;99.90
6758;DHT22;3416;53.074;8.822;2024-03-02T06:10:27;7.40;99.90
6758;DHT22;3416;53.074;8.822;2024-03-02T06:12:54;7.40;99.90
6758;DHT22;3416;53.074;8.822;2024-03-02T06:15:21;7.40;99.90
6758;DHT22;3416;53.074;8.822;2024-03-02T06:17:48;7.40;99.90
6758;DHT22;3416;53.074;8.822;2024-03-02T06:20:15;7.40;99.90
6758;DHT22;3416;53.074;8.822;2024-03-02T06:22:42;7.50;99.90
6758;DHT22;3416;53.074;8.822;2024-03-02T06:25:10;7.50;99.90
6758;DHT22;3416;53.074;8.822;2024-03-02T06:27:37;7.50;99.90
6758;DHT22;3416;53.074;8.822;2024-03-02T06:30:05;7.50;99.90
6758;DHT22;3416;53.074;8.822;2024-03-02T06:32:32;7.50;99.90
6758;DHT22;3416;53.074;8.822;2024-03-02T06:34:59;7.60;99.90
6758;DHT22;3416;53.074;8.822;2024-03-02T06:37:26;7.60;99.90
6758;DHT22;3416;53.074;8.822;2024-03-02T06:39:53;7.70;99.90
6758;DHT22;3416;53.074;8.822;2024-03-02T06:42:22;7.80;99.90
6758;DHT22;3416;53.074;8.822;2024-03-02T06:44:49;7.80;99.90
6758;DHT22;3416;53.074;8.822;2024-03-02T06:47:16;7.90;99.90
6758;DHT22;3416;53.074;8.822;2024-03-02T06:49:45;7.90;99.90
6758;DHT22;3416;53.074;8.822;2024-03-02T06:52:12;7.90;99.90
6758;DHT22;3416;53.074;8.822;2024-03-02T06:54:39;8.00;99.90
6758;DHT22;3416;53.074;8.822;2024-03-02T06:57:06;8.10;99.90
6758;DHT22;3416;53.074;8.822;2024-03-02T06:59:35;8.10;99.90
6758;DHT22;3416;53.074;8.822;2024-03-02T07:02:02;8.20;99.90
6758;DHT22;3416;53.074;8.822;2024-03-02T07:04:29;8.30;99.90
6758;DHT22;3416;53.074;8.822;2024-03-02T07:06:56;8.40;99.90
6758;DHT22;3416;53.074;8.822;2024-03-02T07:09:23;8.60;99.90
6758;DHT22;3416;53.074;8.822;2024-03-02T07:11:49;8.70;99.90
6758;DHT22;3416;53.074;8.822;2024-03-02T07:14:17;8.90;99.90
6758;DHT22;3416;53.074;8.822;2024-03-02T07:16:45;9.10;99.90
6758;DHT22;3416;53.074;8.822;2024-03-02T07:19:12;9.40;99.90
6758;DHT22;3416;53.074;8.822;2024-03-02T07:21:39;9.80;99.90
6758;DHT22;3416;53.074;8.822;2024-03-02T07:24:07;10.20;99.90
6758;DHT22;3416;53.074;8.822;2024-03-02T07:26:38;10.40;99.90
6758;DHT22;3416;53.074;8.822;2024-03-02T07:29:05;10.50;99.90
6758;DHT22;3416;53.074;8.822;2024-03-02T07:31:32;10.60;99.90
6758;DHT22;3416;53.074;8.822;2024-03-02T07:34:00;10.50;99.90
6758;DHT22;3416;53.074;8.822;2024-03-02T07:36:27;10.50;99.90
6758;DHT22;3416;53.074;8.822;2024-03-02T07:38:54;10.50;99.90
6758;DHT22;3416;53.074;8.822;2024-03-02T07:41:21;10.60;99.90
6758;DHT22;3416;53.074;8.822;2024-03-02T07:43:48;10.80;99.90
6758;DHT22;3416;53.074;8.822;2024-03-02T07:46:15;10.90;99.90
6758;DHT22;3416;53.074;8.822;2024-03-02T07:48:43;10.90;99.90
6758;DHT22;3416;53.074;8.822;2024-03-02T07:51:11;10.80;99.90
6758;DHT22;3416;53.074;8.822;2024-03-02T07:53:39;10.60;99.90
6758;DHT22;3416;53.074;8.822;2024-03-02T07:56:06;10.40;99.90
6758;DHT22;3416;53.074;8.822;2024-03-02T07:58:33;10.20;99.90
6758;DHT22;3416;53.074;8.822;2024-03-02T08:01:01;10.20;99.90
6758;DHT22;3416;53.074;8.822;2024-03-02T08:03:28;10.10;99.90
6758;DHT22;3416;53.074;8.822;2024-03-02T08:05:55;10.00;99.90
6758;DHT22;3416;53.074;8.822;2024-03-02T08:08:23;9.90;99.90
6758;DHT22;3416;53.074;8.822;2024-03-02T08:10:50;9.80;99.90
6758;DHT22;3416;53.074;8.822;2024-03-02T08:13:17;9.80;99.90
6758;DHT22;3416;53.074;8.822;2024-03-02T08:15:44;9.80;99.90
6758;DHT22;3416;53.074;8.822;2024-03-02T08:18:12;9.80;99.90
6758;DHT22;3416;53.074;8.822;2024-03-02T08:20:40;9.90;99.90
6758;DHT22;3416;53.074;8.822;2024-03-02T08:23:07;10.00;99.90
6758;DHT22;3416;53.074;8.822;2024-03-02T08:25:36;9.90;99.90
6758;DHT22;3416;53.074;8.822;2024-03-02T08:28:04;9.90;99.90
6758;DHT22;3416;53.074;8.822;2024-03-02T08:30:31;9.90;99.90
6758;DHT22;3416;53.074;8.822;2024-03-02T08:32:59;10.00;99.90
6758;DHT22;3416;53.074;8.822;2024-03-02T08:35:26;10.00;99.90
6758;DHT22;3416;53.074;8.822;2024-03-02T08:37:53;10.20;99.90
6758;DHT22;3416;53.074;8.822;2024-03-02T08:40:19;10.20;99.90
6758;DHT22;3416;53.074;8.822;2024-03-02T08:42:48;10.20;99.90
6758;DHT22;3416;53.074;8.822;2024-03-02T08:47:42;10.60;99.90
6758;DHT22;3416;53.074;8.822;2024-03-02T08:50:10;11.20;99.90
6758;DHT22;3416;53.074;8.822;2024-03-02T08:52:37;12.10;99.90
6758;DHT22;3416;53.074;8.822;2024-03-02T08:55:04;13.20;99.90
6758;DHT22;3416;53.074;8.822;2024-03-02T08:57:33;14.40;99.90
6758;DHT22;3416;53.074;8.822;2024-03-02T09:00:01;15.30;99.90
6758;DHT22;3416;53.074;8.822;2024-03-02T09:02:28;15.80;99.90
6758;DHT22;3416;53.074;8.822;2024-03-02T09:04:55;16.20;99.80
6758;DHT22;3416;53.074;8.822;2024-03-02T09:07:22;16.60;99.60
6758;DHT22;3416;53.074;8.822;2024-03-02T09:09:49;16.50;97.80
6758;DHT22;3416;53.074;8.822;2024-03-02T09:12:18;17.40;98.00
6758;DHT22;3416;53.074;8.822;2024-03-02T09:14:45;17.30;96.90
6758;DHT22;3416;53.074;8.822;2024-03-02T09:17:14;17.80;96.90
6758;DHT22;3416;53.074;8.822;2024-03-02T09:19:41;18.10;96.20
6758;DHT22;3416;53.074;8.822;2024-03-02T09:22:08;18.40;94.90
6758;DHT22;3416;53.074;8.822;2024-03-02T09:24:35;18.00;94.30
6758;DHT22;3416;53.074;8.822;2024-03-02T09:27:02;17.90;94.40
6758;DHT22;3416;53.074;8.822;2024-03-02T09:29:29;17.90;94.70
6758;DHT22;3416;53.074;8.822;2024-03-02T09:31:56;17.60;94.90
6758;DHT22;3416;53.074;8.822;2024-03-02T09:34:24;17.40;95.30
6758;DHT22;3416;53.074;8.822;2024-03-02T09:36:51;17.60;95.00
6758;DHT22;3416;53.074;8.822;2024-03-02T09:39:18;17.30;94.40
6758;DHT22;3416;53.074;8.822;2024-03-02T09:41:45;17.10;95.60
6758;DHT22;3416;53.074;8.822;2024-03-02T09:44:14;17.20;95.40
6758;DHT22;3416;53.074;8.822;2024-03-02T09:46:41;17.20;95.90
6758;DHT22;3416;53.074;8.822;2024-03-02T09:49:09;17.00;95.30
6758;DHT22;3416;53.074;8.822;2024-03-02T09:51:38;16.50;95.50
6758;DHT22;3416;53.074;8.822;2024-03-02T09:54:07;16.60;95.80
6758;DHT22;3416;53.074;8.822;2024-03-02T09:56:34;16.40;95.40
6758;DHT22;3416;53.074;8.822;2024-03-02T09:59:01;16.00;95.90
6758;DHT22;3416;53.074;8.822;2024-03-02T10:01:28;16.20;96.30
6758;DHT22;3416;53.074;8.822;2024-03-02T10:03:57;17.10;96.30
6758;DHT22;3416;53.074;8.822;2024-03-02T10:06:26;18.00;95.20
6758;DHT22;3416;53.074;8.822;2024-03-02T10:08:55;18.30;94.30
6758;DHT22;3416;53.074;8.822;2024-03-02T10:11:26;18.20;94.00
6758;DHT22;3416;53.074;8.822;2024-03-02T10:14:08;17.90;94.30
6758;DHT22;3416;53.074;8.822;2024-03-02T10:16:36;18.00;93.80
6758;DHT22;3416;53.074;8.822;2024-03-02T10:19:19;17.70;94.10
6758;DHT22;3416;53.074;8.822;2024-03-02T10:21:46;17.70;94.30
6758;DHT22;3416;53.074;8.822;2024-03-02T10:24:15;17.50;94.30
6758;DHT22;3416;53.074;8.822;2024-03-02T10:26:42;17.70;94.40
6758;DHT22;3416;53.074;8.822;2024-03-02T10:29:09;17.90;94.10
6758;DHT22;3416;53.074;8.822;2024-03-02T10:31:37;17.90;94.20
6758;DHT22;3416;53.074;8.822;2024-03-02T10:34:05;17.80;93.60
6758;DHT22;3416;53.074;8.822;2024-03-02T10:36:32;17.90;93.90
6758;DHT22;3416;53.074;8.822;2024-03-02T10:39:02;18.10;94.00
6758;DHT22;3416;53.074;8.822;2024-03-02T10:41:32;18.20;93.80
6758;DHT22;3416;53.074;8.822;2024-03-02T10:44:02;17.90;92.90
6758;DHT22;3416;53.074;8.822;2024-03-02T10:46:30;18.10;93.40
6758;DHT22;3416;53.074;8.822;2024-03-02T10:48:59;18.10;93.20
6758;DHT22;3416;53.074;8.822;2024-03-02T10:51:28;17.90;93.20
6758;DHT22;3416;53.074;8.822;2024-03-02T10:53:57;17.50;93.30
6758;DHT22;3416;53.074;8.822;2024-03-02T10:56:28;16.40;93.80
6758;DHT22;3416;53.074;8.822;2024-03-02T10:59:02;16.70;94.50
6758;DHT22;3416;53.074;8.822;2024-03-02T11:01:32;16.20;95.10
6758;DHT22;3416;53.074;8.822;2024-03-02T11:04:00;16.50;95.50
6758;DHT22;3416;53.074;8.822;2024-03-02T11:06:29;16.70;94.70
6758;DHT22;3416;53.074;8.822;2024-03-02T11:09:00;16.60;95.00
6758;DHT22;3416;53.074;8.822;2024-03-02T11:11:31;16.60;94.60
6758;DHT22;3416;53.074;8.822;2024-03-02T11:14:02;16.50;95.30
6758;DHT22;3416;53.074;8.822;2024-03-02T11:16:35;16.60;95.20
6758;DHT22;3416;53.074;8.822;2024-03-02T11:19:04;16.40;95.20
6758;DHT22;3416;53.074;8.822;2024-03-02T11:21:32;16.50;95.10
6758;DHT22;3416;53.074;8.822;2024-03-02T11:24:00;16.30;94.80
6758;DHT22;3416;53.074;8.822;2024-03-02T11:26:28;16.30;95.20
6758;DHT22;3416;53.074;8.822;2024-03-02T11:28:55;16.20;95.60
6758;DHT22;3416;53.074;8.822;2024-03-02T11:31:57;16.30;95.20
6758;DHT22;3416;53.074;8.822;2024-03-02T11:34:29;16.40;95.20
6758;DHT22;3416;53.074;8.822;2024-03-02T11:36:56;16.20;95.40
6758;DHT22;3416;53.074;8.822;2024-03-02T11:39:25;16.00;95.30
6758;DHT22;3416;53.074;8.822;2024-03-02T11:41:52;16.00;95.30
6758;DHT22;3416;53.074;8.822;2024-03-02T11:44:18;16.20;95.50
6758;DHT22;3416;53.074;8.822;2024-03-02T11:46:51;16.20;95.40
6758;DHT22;3416;53.074;8.822;2024-03-02T11:49:36;16.30;95.50
6758;DHT22;3416;53.074;8.822;2024-03-02T11:52:05;15.80;95.30
6758;DHT22;3416;53.074;8.822;2024-03-02T11:54:33;15.70;95.30
6758;DHT22;3416;53.074;8.822;2024-03-02T11:57:02;15.70;95.50
6758;DHT22;3416;53.074;8.822;2024-03-02T11:59:29;15.60;95.90
6758;DHT22;3416;53.074;8.822;2024-03-02T12:01:58;15.50;96.00
6758;DHT22;3416;53.074;8.822;2024-03-02T12:04:26;15.50;96.30
6758;DHT22;3416;53.074;8.822;2024-03-02T12:06:57;15.50;96.10
6758;DHT22;3416;53.074;8.822;2024-03-02T12:09:26;15.40;96.10
6758;DHT22;3416;53.074;8.822;2024-03-02T12:12:04;15.50;96.20
6758;DHT22;3416;53.074;8.822;2024-03-02T12:14:31;15.30;96.10
6758;DHT22;3416;53.074;8.822;2024-03-02T12:17:00;15.30;96.40
6758;DHT22;3416;53.074;8.822;2024-03-02T12:19:27;15.20;96.60
6758;DHT22;3416;53.074;8.822;2024-03-02T12:21:56;15.20;96.50
6758;DHT22;3416;53.074;8.822;2024-03-02T12:24:24;15.20;96.70
6758;DHT22;3416;53.074;8.822;2024-03-02T12:26:51;15.00;96.50
6758;DHT22;3416;53.074;8.822;2024-03-02T12:29:19;15.00;96.70
6758;DHT22;3416;53.074;8.822;2024-03-02T12:31:48;14.90;96.70
6758;DHT22;3416;53.074;8.822;2024-03-02T12:34:17;14.90;96.70
6758;DHT22;3416;53.074;8.822;2024-03-02T12:36:46;14.90;97.00
6758;DHT22;3416;53.074;8.822;2024-03-02T12:39:15;14.90;97.20
6758;DHT22;3416;53.074;8.822;2024-03-02T12:41:43;14.80;96.90
6758;DHT22;3416;53.074;8.822;2024-03-02T12:44:10;14.80;97.30
6758;DHT22;3416;53.074;8.822;2024-03-02T12:46:37;14.80;97.30
6758;DHT22;3416;53.074;8.822;2024-03-02T12:49:11;14.90;97.30
6758;DHT22;3416;53.074;8.822;2024-03-02T12:51:41;14.90;97.30
6758;DHT22;3416;53.074;8.822;2024-03-02T12:54:09;14.90;96.90
6758;DHT22;3416;53.074;8.822;2024-03-02T12:56:36;14.80;96.90
6758;DHT22;3416;53.074;8.822;2024-03-02T12:59:04;14.90;96.90
6758;DHT22;3416;53.074;8.822;2024-03-02T13:01:31;14.90;97.00
6758;DHT22;3416;53.074;8.822;2024-03-02T13:03:59;14.90;97.10
6758;DHT22;3416;53.074;8.822;2024-03-02T13:06:26;14.70;96.80
6758;DHT22;3416;53.074;8.822;2024-03-02T13:08:56;14.70;97.30
6758;DHT22;3416;53.074;8.822;2024-03-02T13:11:23;14.70;97.20
6758;DHT22;3416;53.074;8.822;2024-03-02T13:13:50;14.80;97.40
6758;DHT22;3416;53.074;8.822;2024-03-02T13:16:18;14.70;97.70
6758;DHT22;3416;53.074;8.822;2024-03-02T13:18:46;14.80;97.90
6758;DHT22;3416;53.074;8.822;2024-03-02T13:21:13;14.80;97.90
6758;DHT22;3416;53.074;8.822;2024-03-02T13:23:40;14.70;98.00
6758;DHT22;3416;53.074;8.822;2024-03-02T13:26:09;14.70;98.10
6758;DHT22;3416;53.074;8.822;2024-03-02T13:28:38;14.70;98.30
6758;DHT22;3416;53.074;8.822;2024-03-02T13:31:05;14.70;98.30
6758;DHT22;3416;53.074;8.822;2024-03-02T13:33:32;14.70;98.20
6758;DHT22;3416;53.074;8.822;2024-03-02T13:35:59;14.80;98.20
6758;DHT22;3416;53.074;8.822;2024-03-02T13:38:27;14.80;98.00
6758;DHT22;3416;53.074;8.822;2024-03-02T13:40:54;14.90;98.40
6758;DHT22;3416;53.074;8.822;2024-03-02T13:43:23;14.80;97.90
6758;DHT22;3416;53.074;8.822;2024-03-02T13:45:50;14.70;97.90
6758;DHT22;3416;53.074;8.822;2024-03-02T13:48:19;14.70;98.20
6758;DHT22;3416;53.074;8.822;2024-03-02T13:50:46;14.70;98.40
6758;DHT22;3416;53.074;8.822;2024-03-02T13:53:13;14.70;98.40
6758;DHT22;3416;53.074;8.822;2024-03-02T13:55:40;14.80;98.30
6758;DHT22;3416;53.074;8.822;2024-03-02T13:58:09;14.80;98.50
6758;DHT22;3416;53.074;8.822;2024-03-02T14:00:38;14.80;98.40
6758;DHT22;3416;53.074;8.822;2024-03-02T14:03:05;14.80;98.00
6758;DHT22;3416;53.074;8.822;2024-03-02T14:05:32;14.90;97.90
6758;DHT22;3416;53.074;8.822;2024-03-02T14:08:00;14.80;97.80
6758;DHT22;3416;53.074;8.822;2024-03-02T14:10:27;14.80;97.80
6758;DHT22;3416;53.074;8.822;2024-03-02T14:12:54;14.80;97.80
6758;DHT22;3416;53.074;8.822;2024-03-02T14:15:22;14.70;97.90
6758;DHT22;3416;53.074;8.822;2024-03-02T14:17:50;14.80;98.00
6758;DHT22;3416;53.074;8.822;2024-03-02T14:20:17;14.80;97.70
6758;DHT22;3416;53.074;8.822;2024-03-02T14:22:49;14.80;97.50
6758;DHT22;3416;53.074;8.822;2024-03-02T14:25:17;14.80;97.50
6758;DHT22;3416;53.074;8.822;2024-03-02T14:27:44;14.80;97.60
6758;DHT22;3416;53.074;8.822;2024-03-02T14:30:13;14.90;97.60
6758;DHT22;3416;53.074;8.822;2024-03-02T14:32:40;14.90;97.40
6758;DHT22;3416;53.074;8.822;2024-03-02T14:35:09;14.90;97.70
6758;DHT22;3416;53.074;8.822;2024-03-02T14:37:37;14.90;97.60
6758;DHT22;3416;53.074;8.822;2024-03-02T14:40:05;14.80;97.70
6758;DHT22;3416;53.074;8.822;2024-03-02T14:42:35;14.90;97.70
6758;DHT22;3416;53.074;8.822;2024-03-02T14:47:31;15.00;97.40
6758;DHT22;3416;53.074;8.822;2024-03-02T14:49:58;15.00;97.40
6758;DHT22;3416;53.074;8.822;2024-03-02T14:52:27;15.00;97.50
6758;DHT22;3416;53.074;8.822;2024-03-02T14:54:54;15.00;97.40
6758;DHT22;3416;53.074;8.822;2024-03-02T14:57:21;15.00;97.30
6758;DHT22;3416;53.074;8.822;2024-03-02T14:59:48;15.00;97.40
6758;DHT22;3416;53.074;8.822;2024-03-02T15:02:15;15.10;97.60
6758;DHT22;3416;53.074;8.822;2024-03-02T15:04:42;15.00;97.50
6758;DHT22;3416;53.074;8.822;2024-03-02T15:07:10;15.10;97.60
6758;DHT22;3416;53.074;8.822;2024-03-02T15:09:38;15.20;97.40
6758;DHT22;3416;53.074;8.822;2024-03-02T15:12:07;15.20;97.20
6758;DHT22;3416;53.074;8.822;2024-03-02T15:14:38;15.00;97.00
6758;DHT22;3416;53.074;8.822;2024-03-02T15:17:11;15.00;97.20
6758;DHT22;3416;53.074;8.822;2024-03-02T15:19:41;15.00;97.40
6758;DHT22;3416;53.074;8.822;2024-03-02T15:22:08;15.00;97.50
6758;DHT22;3416;53.074;8.822;2024-03-02T15:24:36;15.00;97.30
6758;DHT22;3416;53.074;8.822;2024-03-02T15:27:05;15.00;97.30
6758;DHT22;3416;53.074;8.822;2024-03-02T15:29:34;15.20;97.40
6758;DHT22;3416;53.074;8.822;2024-03-02T15:32:01;15.20;97.30
6758;DHT22;3416;53.074;8.822;2024-03-02T15:34:30;15.20;97.20
6758;DHT22;3416;53.074;8.822;2024-03-02T15:36:57;15.20;97.20
6758;DHT22;3416;53.074;8.822;2024-03-02T15:39:24;15.20;97.10
6758;DHT22;3416;53.074;8.822;2024-03-02T15:41:52;15.20;97.10
6758;DHT22;3416;53.074;8.822;2024-03-02T15:44:21;15.20;97.20
6758;DHT22;3416;53.074;8.822;2024-03-02T15:46:48;15.10;97.10
6758;DHT22;3416;53.074;8.822;2024-03-02T15:49:15;15.10;97.30
6758;DHT22;3416;53.074;8.822;2024-03-02T15:51:42;15.00;97.60
6758;DHT22;3416;53.074;8.822;2024-03-02T15:54:10;15.00;97.60
6758;DHT22;3416;53.074;8.822;2024-03-02T15:56:37;14.90;97.70
6758;DHT22;3416;53.074;8.822;2024-03-02T15:59:04;14.80;97.80
6758;DHT22;3416;53.074;8.822;2024-03-02T16:01:33;14.80;98.10
6758;DHT22;3416;53.074;8.822;2024-03-02T16:04:00;14.80;98.30
6758;DHT22;3416;53.074;8.822;2024-03-02T16:06:27;14.80;98.40
6758;DHT22;3416;53.074;8.822;2024-03-02T16:08:54;14.80;98.50
6758;DHT22;3416;53.074;8.822;2024-03-02T16:11:22;14.70;98.50
6758;DHT22;3416;53.074;8.822;2024-03-02T16:13:49;14.70;98.60
6758;DHT22;3416;53.074;8.822;2024-03-02T16:16:17;14.70;98.40
6758;DHT22;3416;53.074;8.822;2024-03-02T16:18:45;14.70;98.40
6758;DHT22;3416;53.074;8.822;2024-03-02T16:21:12;14.60;98.40